.
WxDataArchive / Data Records for 2012-02-22
2012-02-21 February 2012 2012-02-23

Data Records for Wednesday, 22 February 2012

Time	Temp	Chill	HIndex	Humid	Dewpt	 Wind 	HiWind	WindDir	Rain 	Barom 
-----	----	-----	------	-----	-----	------	------	-------	-----	----- 
00:00	40.3	40.3	40.3	83	35.6	1	4	248	0.00	29.739 
00:05	40.2	40.2	40.2	83	35.5	2	6	248	0.00	29.739 
00:10	40.2	40.2	40.2	83	35.5	1	4	225	0.00	29.739 
00:15	40.1	40.1	40.1	83	35.4	2	6	248	0.00	29.735 
00:20	40.1	40.1	40.1	83	35.4	2	6	248	0.00	29.735 
00:25	40.1	40.1	40.1	82	35.1	1	4	225	0.00	29.735 
00:30	39.9	39.9	39.9	82	34.9	1	3	248	0.00	29.730 
00:35	39.8	39.8	39.8	82	34.8	1	5	248	0.00	29.730 
00:40	39.8	39.8	39.8	82	34.8	1	4	248	0.00	29.730 
00:45	39.6	39.6	39.6	82	34.6	2	5	248	0.00	29.726 
00:50	39.8	39.8	39.8	81	34.5	2	5	225	0.00	29.726 
00:55	39.8	39.8	39.8	81	34.5	2	5	248	0.00	29.726 
01:00	39.9	39.9	39.9	81	34.6	1	4	248	0.00	29.728 
01:05	39.9	39.9	39.9	81	34.6	1	4	248	0.00	29.728 
01:10	39.9	39.9	39.9	81	34.6	1	4	248	0.00	29.728 
01:15	39.9	39.9	39.9	80	34.2	1	3	248	0.00	29.728 
01:20	39.8	39.8	39.8	80	34.1	1	6	225	0.00	29.728 
01:25	39.8	39.8	39.8	80	34.1	1	3	225	0.00	29.728 
01:30	39.6	39.6	39.6	80	33.9	0	3	225	0.00	29.721 
01:35	39.3	39.3	39.3	80	33.7	0	3	225	0.00	29.721 
01:40	39.3	39.3	39.3	81	34.0	1	3	225	0.00	29.721 
01:45	39.2	39.2	39.2	81	33.9	0	2	225	0.00	29.723 
01:50	39.2	39.2	39.2	81	33.9	1	3	225	0.00	29.723 
01:55	39.2	39.2	39.2	80	33.6	1	3	225	0.00	29.723 
02:00	39.1	39.1	39.1	80	33.5	1	4	225	0.00	29.717 
02:05	39.1	39.1	39.1	80	33.5	1	4	225	0.00	29.717 
02:10	39.1	39.1	39.1	80	33.5	1	3	248	0.00	29.717 
02:15	38.9	38.9	38.9	79	33.0	1	5	248	0.00	29.715 
02:20	38.9	38.9	38.9	79	33.0	1	3	248	0.00	29.715 
02:25	38.9	38.9	38.9	79	33.0	1	4	248	0.00	29.715 
02:30	39.1	39.1	39.1	78	32.8	1	3	248	0.00	29.712 
02:35	39.1	39.1	39.1	77	32.5	1	5	248	0.00	29.712 
02:40	39.2	39.2	39.2	77	32.6	1	5	248	0.00	29.712 
02:45	39.2	39.2	39.2	76	32.3	1	3	248	0.00	29.709 
02:50	39.2	39.2	39.2	76	32.3	1	4	248	0.00	29.709 
02:55	39.2	39.2	39.2	76	32.3	1	4	248	0.00	29.709 
03:00	39.2	39.2	39.2	76	32.3	1	5	248	0.00	29.707 
03:05	39.2	39.2	39.2	76	32.3	0	2	248	0.00	29.707 
03:10	39.1	39.1	39.1	76	32.2	1	3	248	0.00	29.707 
03:15	39.1	39.1	39.1	76	32.2	1	4	248	0.00	29.703 
03:20	39.1	39.1	39.1	76	32.2	1	4	248	0.00	29.703 
03:25	38.9	38.9	38.9	75	31.7	1	3	248	0.00	29.703 
03:30	38.9	38.9	38.9	75	31.7	1	3	225	0.00	29.698 
03:35	38.9	38.9	38.9	75	31.7	1	3	248	0.00	29.698 
03:40	38.8	38.8	38.8	75	31.6	1	4	248	0.00	29.698 
03:45	38.8	38.8	38.8	75	31.6	0	3	248	0.00	29.692 
03:50	38.6	38.6	38.6	75	31.4	1	5	248	0.00	29.692 
03:55	38.6	38.6	38.6	76	31.7	1	3	248	0.00	29.692 
04:00	38.5	38.5	38.5	76	31.6	1	4	248	0.00	29.692 
04:05	38.5	38.5	38.5	76	31.6	1	3	248	0.00	29.692 
04:10	38.3	38.3	38.3	77	31.7	1	3	248	0.00	29.692 
04:15	38.2	38.2	38.2	77	31.6	2	5	248	0.00	29.693 
04:20	38.2	38.2	38.2	77	31.6	1	4	248	0.00	29.693 
04:25	38.2	38.2	38.2	77	31.6	1	4	248	0.00	29.693 
04:30	38.3	38.3	38.3	77	31.7	2	7	270	0.00	29.692 
04:35	38.3	38.3	38.3	77	31.7	1	3	248	0.00	29.692 
04:40	38.3	38.3	38.3	77	31.7	1	3	248	0.00	29.692 
04:45	38.3	38.3	38.3	77	31.7	1	7	248	0.00	29.692 
04:50	38.3	38.3	38.3	77	31.7	1	5	248	0.00	29.692 
04:55	38.3	38.3	38.3	77	31.7	1	4	248	0.00	29.692 
05:00	38.3	38.3	38.3	76	31.4	1	3	248	0.00	29.679 
05:05	38.3	38.3	38.3	77	31.7	1	3	248	0.00	29.679 
05:10	38.3	38.3	38.3	77	31.7	1	3	248	0.00	29.679 
05:15	38.2	38.2	38.2	77	31.6	1	5	248	0.00	29.681 
05:20	38.2	38.2	38.2	77	31.6	1	3	248	0.00	29.681 
05:25	38.2	38.2	38.2	77	31.6	0	2	248	0.00	29.681 
05:30	38.0	38.0	38.0	77	31.4	0	2	248	0.00	29.680 
05:35	38.0	38.0	38.0	77	31.4	1	4	248	0.00	29.680 
05:40	38.0	38.0	38.0	77	31.4	1	2	248	0.00	29.680 
05:45	38.0	38.0	38.0	77	31.4	1	3	248	0.00	29.678 
05:50	38.0	38.0	38.0	77	31.4	1	3	248	0.00	29.678 
05:55	38.0	38.0	38.0	77	31.4	1	3	248	0.00	29.678 
06:00	38.0	38.0	38.0	77	31.4	1	3	248	0.00	29.678 
06:05	38.0	38.0	38.0	77	31.4	1	3	248	0.00	29.678 
06:10	38.0	38.0	38.0	76	31.1	1	4	248	0.00	29.678 
06:15	38.0	38.0	38.0	76	31.1	0	3	248	0.00	29.664 
06:20	38.0	38.0	38.0	76	31.1	1	4	248	0.00	29.664 
06:25	38.0	38.0	38.0	76	31.1	0	3	248	0.00	29.664 
06:30	37.9	37.9	37.9	76	31.0	0	2	248	0.00	29.662 
06:35	37.8	37.8	37.8	77	31.2	0	1	248	0.00	29.662 
06:40	37.6	37.6	37.6	77	31.1	0	0	---	0.00	29.662 
06:45	37.5	37.5	37.5	78	31.3	0	1	248	0.00	29.663 
06:50	37.5	37.5	37.5	78	31.3	0	2	248	0.00	29.663 
06:55	37.3	37.3	37.3	78	31.1	0	1	248	0.00	29.663 
07:00	37.3	37.3	37.3	79	31.4	0	1	248	0.00	29.655 
07:05	37.2	37.2	37.2	79	31.3	0	1	248	0.00	29.655 
07:10	37.0	37.0	37.0	79	31.1	0	2	248	0.00	29.655 
07:15	36.9	36.9	36.9	80	31.3	0	1	248	0.00	29.650 
07:20	36.9	36.9	36.9	80	31.3	0	2	248	0.00	29.650 
07:25	36.8	36.8	36.8	80	31.2	0	2	248	0.00	29.650 
07:30	36.8	36.8	36.8	80	31.2	0	1	248	0.00	29.648 
07:35	36.6	36.6	36.6	80	31.0	0	0	---	0.00	29.648 
07:40	36.6	36.6	36.6	81	31.3	0	0	---	0.00	29.648 
07:45	36.5	36.5	36.5	81	31.2	0	0	---	0.00	29.642 
07:50	36.3	36.3	36.3	81	31.0	0	1	248	0.00	29.642 
07:55	36.3	36.3	36.3	81	31.0	0	0	---	0.00	29.642 
08:00	36.2	36.2	36.2	81	30.9	0	0	---	0.00	29.644 
08:05	36.2	36.2	36.2	82	31.2	0	0	---	0.00	29.644 
08:10	36.2	36.2	36.2	82	31.2	0	0	---	0.00	29.644 
08:15	36.2	36.2	36.2	82	31.2	0	0	---	0.00	29.636 
08:20	36.2	36.2	36.2	82	31.2	0	0	---	0.00	29.636 
08:25	36.2	36.2	36.2	83	31.5	0	0	---	0.00	29.636 
08:30	36.3	36.3	36.3	83	31.6	0	0	---	0.00	29.634 
08:35	36.6	36.6	36.6	83	31.9	0	0	---	0.00	29.634 
08:40	36.9	36.9	36.9	83	32.2	0	1	248	0.00	29.634 
08:45	37.2	37.2	37.2	83	32.5	0	0	---	0.00	29.632 
08:50	37.3	37.3	37.3	82	32.3	0	1	248	0.00	29.632 
08:55	37.5	37.5	37.5	81	32.2	0	1	248	0.00	29.632 
09:00	37.6	37.6	37.6	81	32.3	0	0	---	0.00	29.626 
09:05	37.8	37.8	37.8	81	32.5	0	0	---	0.00	29.626 
09:10	38.0	38.0	38.0	81	32.7	0	1	248	0.00	29.626 
09:15	38.2	38.2	38.2	80	32.6	0	1	248	0.00	29.614 
09:20	38.2	38.2	38.2	80	32.6	0	0	---	0.00	29.614 
09:25	38.5	38.5	38.5	80	32.9	0	0	---	0.00	29.614 
09:30	38.8	38.8	38.8	80	33.2	0	2	248	0.00	29.615 
09:35	39.1	39.1	39.1	79	33.1	0	0	---	0.00	29.615 
09:40	39.3	39.3	39.3	78	33.0	0	1	248	0.00	29.615 
09:45	39.6	39.6	39.6	77	33.0	0	2	248	0.00	29.602 
09:50	39.9	39.9	39.9	77	33.3	0	1	248	0.00	29.602 
09:55	40.1	40.1	40.1	76	33.2	0	1	248	0.00	29.602 
10:00	40.5	40.5	40.5	75	33.2	0	3	248	0.00	29.599 
10:05	40.6	40.6	40.6	73	32.6	1	3	248	0.00	29.599 
10:10	40.6	40.6	40.6	73	32.6	0	3	248	0.00	29.599 
10:15	40.9	40.9	40.9	73	32.9	0	1	248	0.00	29.591 
10:20	41.1	41.1	41.1	73	33.1	0	2	248	0.00	29.591 
10:25	41.5	41.5	41.5	73	33.5	0	2	248	0.00	29.591 
10:30	41.9	41.9	41.9	73	33.9	0	2	248	0.00	29.592 
10:35	42.1	42.1	42.1	71	33.4	1	3	248	0.00	29.592 
10:40	41.9	41.9	41.9	71	33.2	1	3	248	0.00	29.592 
10:45	41.8	41.8	41.8	71	33.1	1	2	248	0.00	29.582 
10:50	41.9	41.9	41.9	72	33.5	0	3	248	0.00	29.582 
10:55	42.2	42.2	42.2	72	33.8	0	3	248	0.00	29.582 
11:00	42.3	42.3	42.3	72	33.9	0	2	248	0.00	29.575 
11:05	42.3	42.3	42.3	73	34.3	1	3	248	0.00	29.575 
11:10	42.2	42.2	42.2	73	34.2	0	2	248	0.00	29.575 
11:15	42.2	42.2	42.2	74	34.5	1	2	248	0.00	29.564 
11:20	42.5	42.5	42.5	75	35.1	0	3	248	0.00	29.564 
11:25	42.8	42.8	42.8	73	34.8	1	3	68	0.00	29.564 
11:30	42.9	42.9	42.9	72	34.5	2	3	68	0.00	29.554 
11:35	42.9	42.9	42.9	72	34.5	1	3	68	0.00	29.554 
11:40	42.9	42.9	42.9	71	34.2	1	3	248	0.00	29.554 
11:45	43.3	43.3	43.3	72	34.9	0	2	248	0.00	29.548 
11:50	43.5	43.5	43.5	72	35.1	1	3	248	0.00	29.548 
11:55	43.5	43.5	43.5	70	34.4	0	2	225	0.00	29.548 
12:00	43.9	43.9	43.9	71	35.1	1	4	112	0.00	29.531 
12:05	44.3	44.3	44.3	70	35.1	0	3	180	0.00	29.531 
12:10	44.8	44.8	44.8	69	35.3	0	2	202	0.00	29.531 
12:15	45.1	45.1	45.1	68	35.2	1	4	202	0.00	29.529 
12:20	45.1	45.1	45.1	68	35.2	0	3	112	0.00	29.529 
12:25	45.2	45.2	45.2	67	34.9	0	2	112	0.00	29.529 
12:30	45.2	45.2	45.2	65	34.1	1	4	248	0.00	29.518 
12:35	45.2	45.2	45.2	65	34.1	1	3	248	0.00	29.518 
12:40	45.5	45.5	45.5	67	35.2	0	3	248	0.00	29.518 
12:45	45.8	45.8	45.8	64	34.3	0	2	248	0.00	29.510 
12:50	45.8	45.8	45.8	63	33.9	0	2	248	0.00	29.510 
12:55	46.0	46.0	46.0	63	34.1	1	3	248	0.00	29.510 
13:00	46.0	46.0	46.0	63	34.1	1	4	225	0.00	29.505 
13:05	45.7	45.7	45.7	62	33.4	1	3	225	0.00	29.505 
13:10	45.5	45.5	45.5	63	33.6	1	2	248	0.00	29.505 
13:15	45.2	45.2	45.2	64	33.8	1	3	248	0.00	29.503 
13:20	45.2	45.2	45.2	64	33.8	1	3	248	0.00	29.503 
13:25	45.5	45.5	45.5	65	34.4	0	1	248	0.00	29.503 
13:30	46.0	46.0	46.0	63	34.1	0	1	248	0.00	29.476 
13:35	46.2	46.2	46.2	62	33.9	0	2	248	0.00	29.476 
13:40	46.4	46.4	46.4	62	34.1	1	2	248	0.00	29.476 
13:45	46.4	46.4	46.4	62	34.1	1	2	248	0.00	29.483 
13:50	46.4	46.4	46.4	62	34.1	2	4	225	0.00	29.483 
13:55	46.2	46.2	46.2	62	33.9	1	3	248	0.00	29.483 
14:00	46.1	46.1	46.1	62	33.8	1	3	248	0.00	29.475 
14:05	46.2	46.2	46.2	62	33.9	1	3	248	0.00	29.475 
14:10	46.4	46.4	46.4	62	34.1	1	3	292	0.00	29.475 
14:15	46.4	46.4	46.4	61	33.7	1	4	292	0.00	29.471 
14:20	46.1	46.1	46.1	61	33.4	1	3	292	0.00	29.471 
14:25	46.0	46.0	46.0	63	34.1	1	2	292	0.00	29.471 
14:30	46.0	46.0	46.0	63	34.1	1	2	292	0.00	29.468 
14:35	45.8	45.8	45.8	64	34.3	1	4	338	0.00	29.468 
14:40	45.8	45.8	45.8	64	34.3	0	3	338	0.00	29.468 
14:45	45.8	45.8	45.8	63	33.9	0	2	338	0.00	29.465 
14:50	45.8	45.8	45.8	63	33.9	0	1	338	0.00	29.465 
14:55	45.8	45.8	45.8	64	34.3	1	3	270	0.00	29.465 
15:00	45.7	45.7	45.7	64	34.2	1	3	315	0.00	29.458 
15:05	45.8	45.8	45.8	65	34.7	0	3	315	0.00	29.458 
15:10	45.8	45.8	45.8	65	34.7	1	3	270	0.00	29.458 
15:15	45.7	45.7	45.7	65	34.6	0	2	270	0.00	29.451 
15:20	45.7	45.7	45.7	65	34.6	1	4	270	0.00	29.451 
15:25	45.7	45.7	45.7	65	34.6	0	2	270	0.00	29.451 
15:30	45.7	45.7	45.7	65	34.6	0	2	270	0.00	29.448 
15:35	45.8	45.8	45.8	65	34.7	0	2	270	0.00	29.448 
15:40	45.8	45.8	45.8	65	34.7	0	1	270	0.00	29.448 
15:45	45.8	45.8	45.8	64	34.3	0	1	270	0.00	29.445 
15:50	45.8	45.8	45.8	65	34.7	0	3	270	0.00	29.445 
15:55	45.7	45.7	45.7	64	34.2	0	2	270	0.00	29.445 
16:00	45.7	45.7	45.7	64	34.2	1	3	315	0.00	29.437 
16:05	45.7	45.7	45.7	64	34.2	1	2	315	0.00	29.437 
16:10	45.7	45.7	45.7	65	34.6	1	2	315	0.00	29.437 
16:15	45.5	45.5	45.5	69	35.9	0	2	315	0.00	29.436 
16:20	45.1	45.1	45.1	71	36.3	0	1	315	0.00	29.436 
16:25	44.3	44.3	44.3	73	36.2	1	3	135	0.00	29.436 
16:30	43.9	43.9	43.9	75	36.5	0	5	90	0.00	29.440 
16:35	43.2	43.2	43.2	75	35.8	1	4	68	0.00	29.440 
16:40	42.8	42.8	42.8	77	36.1	0	2	68	0.00	29.440 
16:45	42.6	42.6	42.6	79	36.6	0	2	68	0.00	29.429 
16:50	42.5	42.5	42.5	80	36.8	1	4	68	0.00	29.429 
16:55	42.2	42.2	42.2	81	36.8	0	3	112	0.00	29.429 
17:00	41.9	41.9	41.9	81	36.5	0	3	45	0.00	29.424 
17:05	41.8	41.8	41.8	81	36.4	0	2	45	0.00	29.424 
17:10	41.5	41.5	41.5	82	36.4	0	2	45	0.00	29.424 
17:15	41.3	41.3	41.3	82	36.2	0	1	45	0.00	29.437 
17:20	41.1	41.1	41.1	83	36.3	0	2	45	0.00	29.437 
17:25	40.9	40.9	40.9	84	36.4	0	2	45	0.00	29.437 
17:30	40.6	40.6	40.6	84	36.2	0	1	45	0.00	29.435 
17:35	40.3	40.3	40.3	85	36.2	0	1	45	0.00	29.435 
17:40	40.2	40.2	40.2	86	36.4	0	2	45	0.00	29.435 
17:45	40.1	40.1	40.1	86	36.3	0	1	45	0.00	29.430 
17:50	39.9	39.9	39.9	87	36.4	0	2	45	0.00	29.430 
17:55	39.8	39.8	39.8	88	36.5	0	1	45	0.00	29.430 
18:00	39.6	39.6	39.6	88	36.3	0	3	45	0.00	29.427 
18:05	39.5	39.5	39.5	88	36.2	0	1	45	0.00	29.427 
18:10	39.3	39.3	39.3	88	36.0	0	0	---	0.00	29.427 
18:15	39.3	39.3	39.3	89	36.3	0	0	---	0.00	29.437 
18:20	39.2	39.2	39.2	89	36.2	0	0	---	0.00	29.437 
18:25	39.1	39.1	39.1	89	36.1	0	1	45	0.00	29.437 
18:30	38.8	38.8	38.8	89	35.8	0	2	45	0.00	29.434 
18:35	38.6	38.6	38.6	89	35.6	0	1	45	0.00	29.434 
18:40	38.6	38.6	38.6	89	35.6	0	1	45	0.00	29.434 
18:45	38.5	38.5	38.5	90	35.8	0	2	45	0.00	29.441 
18:50	38.3	38.3	38.3	90	35.6	0	0	---	0.00	29.441 
18:55	38.2	38.2	38.2	90	35.5	0	2	45	0.00	29.441 
19:00	38.2	38.2	38.2	90	35.5	1	2	45	0.00	29.444 
19:05	38.0	38.0	38.0	90	35.3	0	2	45	0.00	29.444 
19:10	37.9	37.9	37.9	91	35.5	1	2	45	0.01	29.444 
19:15	37.8	37.8	37.8	91	35.4	0	1	45	0.00	29.446 
19:20	37.8	37.8	37.8	91	35.4	0	0	---	0.00	29.446 
19:25	37.6	37.6	37.6	91	35.2	0	1	45	0.00	29.446 
19:30	37.6	37.6	37.6	91	35.2	0	1	45	0.00	29.450 
19:35	37.6	37.6	37.6	91	35.2	0	1	45	0.00	29.450 
19:40	37.6	37.6	37.6	92	35.5	0	2	45	0.00	29.450 
19:45	37.5	37.5	37.5	92	35.4	1	3	45	0.01	29.444 
19:50	37.3	37.3	37.3	92	35.2	0	1	90	0.00	29.444 
19:55	37.3	37.3	37.3	92	35.2	0	2	112	0.00	29.444 
20:00	37.2	37.2	37.2	92	35.1	0	2	112	0.00	29.449 
20:05	37.2	37.2	37.2	92	35.1	0	2	45	0.00	29.449 
20:10	37.0	37.0	37.0	92	34.9	0	2	45	0.00	29.449 
20:15	37.0	37.0	37.0	92	34.9	0	2	45	0.00	29.449 
20:20	36.9	36.9	36.9	92	34.8	0	2	45	0.00	29.449 
20:25	36.8	36.8	36.8	92	34.7	0	1	45	0.00	29.449 
20:30	36.6	36.6	36.6	92	34.5	0	0	---	0.00	29.450 
20:35	36.6	36.6	36.6	92	34.5	0	0	---	0.00	29.450 
20:40	36.5	36.5	36.5	92	34.4	0	0	---	0.00	29.450 
20:45	36.3	36.3	36.3	92	34.2	0	0	---	0.00	29.447 
20:50	36.2	36.2	36.2	92	34.1	0	0	---	0.00	29.447 
20:55	36.2	36.2	36.2	92	34.1	0	2	45	0.00	29.447 
21:00	36.0	36.0	36.0	92	33.9	0	1	45	0.00	29.452 
21:05	36.0	36.0	36.0	92	33.9	0	1	45	0.00	29.452 
21:10	35.9	35.9	35.9	92	33.8	0	2	45	0.00	29.452 
21:15	35.9	35.9	35.9	92	33.8	0	0	---	0.00	29.455 
21:20	35.8	35.8	35.8	92	33.7	0	0	---	0.00	29.455 
21:25	35.8	35.8	35.8	92	33.7	0	0	---	0.00	29.455 
21:30	35.6	35.6	35.6	92	33.5	0	0	---	0.00	29.457 
21:35	35.5	35.5	35.5	92	33.4	0	0	---	0.00	29.457 
21:40	35.5	35.5	35.5	92	33.4	0	0	---	0.00	29.457 
21:45	35.3	35.3	35.3	92	33.2	0	0	---	0.00	29.462 
21:50	35.2	35.2	35.2	92	33.1	0	0	---	0.00	29.462 
21:55	35.0	35.0	35.0	92	32.9	0	0	---	0.00	29.462 
22:00	35.0	35.0	35.0	92	32.9	0	1	45	0.00	29.469 
22:05	34.9	34.9	34.9	93	33.1	0	0	---	0.00	29.469 
22:10	34.7	34.7	34.7	93	32.9	0	0	---	0.00	29.469 
22:15	34.6	34.6	34.6	93	32.8	0	1	45	0.00	29.468 
22:20	34.7	34.7	34.7	93	32.9	0	1	45	0.00	29.468 
22:25	34.9	34.9	34.9	93	33.1	0	1	45	0.00	29.468 
22:30	35.0	35.0	35.0	93	33.2	0	1	45	0.00	29.472 
22:35	35.0	35.0	35.0	93	33.2	0	1	45	0.00	29.472 
22:40	35.2	35.2	35.2	93	33.4	0	1	45	0.00	29.472 
22:45	35.3	35.3	35.3	94	33.7	0	2	45	0.00	29.468 
22:50	35.5	35.5	35.5	94	33.9	0	2	45	0.00	29.468 
22:55	35.5	35.5	35.5	94	33.9	0	1	45	0.00	29.468 
23:00	35.6	35.6	35.6	94	34.0	0	2	45	0.00	29.461 
23:05	35.6	35.6	35.6	94	34.0	0	2	45	0.00	29.461 
23:10	35.5	35.5	35.5	94	33.9	0	1	22	0.00	29.461 
23:15	35.5	35.5	35.5	94	33.9	0	1	22	0.00	29.455 
23:20	35.3	35.3	35.3	94	33.7	0	0	---	0.00	29.455 
23:25	35.3	35.3	35.3	94	33.7	0	2	248	0.00	29.455 
23:30	35.5	35.5	35.5	94	33.9	0	2	225	0.00	29.456 
23:35	35.5	35.5	35.5	94	33.9	0	1	225	0.00	29.456 
23:40	35.5	35.5	35.5	94	33.9	0	1	225	0.00	29.456 
23:45	35.5	35.5	35.5	94	33.9	0	0	---	0.00	29.456 
23:50	35.5	35.5	35.5	94	33.9	0	2	225	0.00	29.456 
23:55	35.5	35.5	35.5	94	33.9	0	1	225	0.00	29.456 

CoCoRaHS
IN-AL-39
A2 Web Hosting
Creative Commons License
GoDaddy
search engine by freefind advanced

loaded 2018-11-19 10:29:44 • last modified 2010-11-18 10:43:29
Privacy PolicyDisclaimer
• wx.awcolley.com is powered by PmWiki v.2002016 •
• all content (unless otherwise noted) © 2018 A W Colley